Pagrindinis puslapis
METAR-TAF:

METAR-TAF

Oro uostai :

Aklavik, Šiaurės Vakarai, Kanada

platuma: 68-13N, ilguma: 135-00W, Aukštis: 7 m

Dabartinis oras

Ataskaita buvo paskelbta 10 valandos ir 12 minutes, ne 23:00 UTC
Vėjas 5 kt iš Šiaurės/Šiaurės Rytų
Temperatūra 11°C
Drėgmė 40%
Slėgis 1018 hPa
Matomumas: 24.1 km
Mažai debesys ne aukštis 3000 ft

METAR: CYKD 042300Z 02005KT 15SM FEW030 11/M02 A3006 RMK SC1 SC TR R 0.0 AFT 13UTC/LAST STFD OBS/NXT 051300Z SLP180

Laikas: 03:12 (09:12 UTC)


TAF: trūkstamas

Orai ataskaitas ir orų prognozės (METAR, TAF).

turimą stotys yra geltonos ir raudonos taškus žemėlapyje.

Perkelti pele per norėdami pamatyti stoties vardą.

Tada spustelėkite, norėdami matyti oro stebėjimo ir prognozės.

Norėdami pakeisti žemėlapį: spustelėkite ant žalios mygtukų su juodo kryžiaus žemyn,; žalią mygtuką su brūkšneliu, jei norite nutolinti; arba žalių rodyklių gretimoms žemėlapius.


METAR-TAF: